createdAt,value
2022-10-08T00:01:41.442Z,3.08
2022-10-08T00:04:13.502Z,3.53
2022-10-08T00:06:41.476Z,2.83
2022-10-08T00:09:09.399Z,3.22
2022-10-08T00:11:39.759Z,3.30
2022-10-08T00:14:09.136Z,3.20
2022-10-08T00:16:39.511Z,3.00
2022-10-08T00:19:11.459Z,2.90
2022-10-08T00:21:41.232Z,2.70
2022-10-08T00:24:11.817Z,2.88
2022-10-08T00:26:43.506Z,3.53
2022-10-08T00:29:13.873Z,3.63
2022-10-08T00:31:45.663Z,3.42
2022-10-08T00:34:18.484Z,3.20
2022-10-08T00:36:47.335Z,3.28
2022-10-08T00:39:17.296Z,3.17
2022-10-08T00:41:47.476Z,2.88
2022-10-08T00:45:06.348Z,3.45
2022-10-08T00:47:46.618Z,2.83
2022-10-08T00:50:20.167Z,3.00
2022-10-08T00:52:49.987Z,3.47
2022-10-08T00:55:21.068Z,3.25
2022-10-08T00:57:49.824Z,3.08
2022-10-08T01:00:20.068Z,3.35
2022-10-08T01:02:48.554Z,4.05
2022-10-08T01:05:21.183Z,3.17
2022-10-08T01:07:55.252Z,2.95
2022-10-08T01:10:34.456Z,3.20
2022-10-08T01:13:14.830Z,3.03
2022-10-08T01:15:49.597Z,2.80
2022-10-08T01:18:24.169Z,3.08
2022-10-08T01:21:04.143Z,3.30
2022-10-08T01:24:06.934Z,2.70
2022-10-08T01:26:50.275Z,2.90
2022-10-08T01:29:23.009Z,2.60
2022-10-08T01:31:56.416Z,2.70
2022-10-08T01:34:30.302Z,3.00
2022-10-08T01:37:00.511Z,3.75
2022-10-08T01:39:32.409Z,2.58
2022-10-08T01:42:04.103Z,3.13
2022-10-08T01:44:37.092Z,2.50
2022-10-08T01:47:08.244Z,3.22
2022-10-08T01:49:43.855Z,2.95
2022-10-08T01:52:15.506Z,2.50
2022-10-08T01:54:46.967Z,2.85
2022-10-08T01:57:15.015Z,3.03
2022-10-08T01:59:49.003Z,2.95
2022-10-08T02:02:21.919Z,2.95
2022-10-08T02:04:51.742Z,3.25
2022-10-08T02:07:21.684Z,3.08
2022-10-08T02:09:53.177Z,3.17
2022-10-08T02:12:23.007Z,2.72
2022-10-08T02:14:55.087Z,2.83
2022-10-08T02:17:29.793Z,3.10
2022-10-08T02:20:01.425Z,3.00
2022-10-08T02:22:34.793Z,3.38
2022-10-08T02:25:11.356Z,2.80
2022-10-08T02:27:51.714Z,3.05
2022-10-08T02:30:21.947Z,2.83
2022-10-08T02:32:56.486Z,3.30
2022-10-08T02:35:29.190Z,2.80
2022-10-08T02:38:01.509Z,2.97
2022-10-08T02:40:31.785Z,3.53
2022-10-08T02:43:05.692Z,2.60
2022-10-08T02:45:43.205Z,3.38
2022-10-08T02:48:20.339Z,2.90
2022-10-08T02:50:51.830Z,3.17
2022-10-08T02:53:20.631Z,2.85
2022-10-08T02:55:54.800Z,2.88
2022-10-08T02:58:23.340Z,3.53
2022-10-08T03:00:55.895Z,2.67
2022-10-08T03:03:29.701Z,2.70
2022-10-08T03:05:58.935Z,3.38
2022-10-08T03:08:27.356Z,3.17
2022-10-08T03:10:55.835Z,3.25
2022-10-08T03:13:25.936Z,3.38
2022-10-08T03:15:56.080Z,2.85
2022-10-08T03:18:25.480Z,3.08
2022-10-08T03:20:55.839Z,3.03
2022-10-08T03:23:25.568Z,2.83
2022-10-08T03:25:53.475Z,3.22
2022-10-08T03:28:21.449Z,3.25
2022-10-08T03:30:49.562Z,3.50
2022-10-08T03:33:18.886Z,3.55
2022-10-08T03:35:47.434Z,3.05
2022-10-08T03:38:17.738Z,2.92
2022-10-08T03:40:53.984Z,3.33
2022-10-08T03:43:22.542Z,3.55
2022-10-08T03:45:52.300Z,3.28
2022-10-08T03:48:23.210Z,3.30
2022-10-08T03:50:53.554Z,2.85
2022-10-08T03:53:21.867Z,2.95
2022-10-08T03:55:50.622Z,2.70
2022-10-08T03:58:19.292Z,2.97
2022-10-08T04:00:58.535Z,2.60
2022-10-08T04:03:28.687Z,2.67
2022-10-08T04:05:57.066Z,2.28
2022-10-08T04:08:26.161Z,2.95
2022-10-08T04:10:54.265Z,2.55
2022-10-08T04:13:22.538Z,2.80
2022-10-08T04:15:52.016Z,2.13
2022-10-08T04:18:20.179Z,2.33
2022-10-08T04:20:49.529Z,2.50
2022-10-08T04:23:18.611Z,2.42
2022-10-08T04:25:54.022Z,2.53
2022-10-08T04:28:23.134Z,2.40
2022-10-08T04:30:58.816Z,2.20
2022-10-08T04:33:27.524Z,2.17
2022-10-08T04:36:00.143Z,2.33
2022-10-08T04:38:29.309Z,2.15
2022-10-08T04:41:05.349Z,2.58
2022-10-08T04:43:33.701Z,2.50
2022-10-08T04:46:01.689Z,2.97
2022-10-08T04:48:29.883Z,2.20
2022-10-08T04:51:00.798Z,2.20
2022-10-08T04:53:29.529Z,2.17
2022-10-08T04:55:58.559Z,2.40
2022-10-08T04:58:28.079Z,2.03
2022-10-08T05:00:55.993Z,2.50
2022-10-08T05:03:24.118Z,2.38
2022-10-08T05:05:52.241Z,2.40
2022-10-08T05:08:21.544Z,2.58
2022-10-08T05:10:50.153Z,2.70
2022-10-08T05:13:18.300Z,3.13
2022-10-08T05:15:46.275Z,2.72
2022-10-08T05:18:14.285Z,2.55
2022-10-08T05:20:42.410Z,2.65
2022-10-08T05:23:10.351Z,2.55
2022-10-08T05:25:39.646Z,2.60
2022-10-08T05:28:08.170Z,2.25
2022-10-08T05:30:36.154Z,2.53
2022-10-08T05:33:04.350Z,2.22
2022-10-08T05:35:32.393Z,2.75
2022-10-08T05:38:00.301Z,2.88
2022-10-08T05:40:29.586Z,2.78
2022-10-08T05:42:58.992Z,2.17
2022-10-08T05:45:27.000Z,2.53
2022-10-08T05:47:55.614Z,2.25
2022-10-08T05:50:23.693Z,2.70
2022-10-08T05:52:51.910Z,2.85
2022-10-08T05:55:19.801Z,2.28
2022-10-08T05:57:47.776Z,2.70
2022-10-08T06:00:17.505Z,2.72
2022-10-08T06:02:45.847Z,3.05
2022-10-08T06:05:14.056Z,2.45
2022-10-08T06:07:41.965Z,3.03
2022-10-08T06:10:10.445Z,2.70
2022-10-08T06:12:38.500Z,2.90
2022-10-08T06:15:07.435Z,3.00
2022-10-08T06:17:36.727Z,2.47
2022-10-08T06:20:05.125Z,2.88
2022-10-08T06:22:33.052Z,2.80
2022-10-08T06:25:00.966Z,3.50
2022-10-08T06:27:29.253Z,2.67
2022-10-08T06:29:57.230Z,2.88
2022-10-08T06:32:25.170Z,3.27
2022-10-08T06:34:54.533Z,2.92
2022-10-08T06:37:22.494Z,2.85
2022-10-08T06:39:50.435Z,3.40
2022-10-08T06:42:19.298Z,2.80
2022-10-08T06:44:47.246Z,3.67
2022-10-08T06:47:15.177Z,2.85
2022-10-08T06:49:43.268Z,2.85
2022-10-08T06:52:12.706Z,3.58
2022-10-08T06:54:40.604Z,3.60
2022-10-08T06:57:08.630Z,3.58
2022-10-08T06:59:36.545Z,3.40
2022-10-08T07:02:04.568Z,3.03
2022-10-08T07:04:33.043Z,3.70
2022-10-08T07:07:01.581Z,3.28
2022-10-08T07:09:30.999Z,3.95
2022-10-08T07:11:59.634Z,3.13
2022-10-08T07:14:27.558Z,3.45
2022-10-08T07:16:55.646Z,3.72
2022-10-08T07:19:25.996Z,3.90
2022-10-08T07:21:56.834Z,3.88
2022-10-08T07:24:29.899Z,4.28
2022-10-08T07:26:57.900Z,3.90
2022-10-08T07:29:26.301Z,3.35
2022-10-08T07:31:54.753Z,3.92
2022-10-08T07:34:22.845Z,3.92
2022-10-08T07:36:50.926Z,3.90
2022-10-08T07:39:19.943Z,3.60
2022-10-08T07:41:49.979Z,4.10
2022-10-08T07:44:18.517Z,3.85
2022-10-08T07:46:48.096Z,4.00
2022-10-08T07:49:17.526Z,3.83
2022-10-08T07:51:46.109Z,3.47
2022-10-08T07:54:16.779Z,2.95
2022-10-08T07:56:45.592Z,3.45
2022-10-08T09:14:18.166Z,3.03
2022-10-08T09:19:41.792Z,2.65
2022-10-08T09:22:22.695Z,2.38
2022-10-08T09:24:54.283Z,2.03
2022-10-08T09:27:25.788Z,2.30
2022-10-08T09:29:55.337Z,1.98
2022-10-08T09:32:28.065Z,2.08
2022-10-08T09:34:57.229Z,2.22
2022-10-08T09:37:28.012Z,2.55
2022-10-08T09:40:19.477Z,2.08
2022-10-08T09:43:19.165Z,2.00
2022-10-08T09:45:50.808Z,1.65
2022-10-08T09:48:21.964Z,1.55
2022-10-08T09:51:00.167Z,1.63
2022-10-08T09:53:41.023Z,2.15
2022-10-08T09:56:10.470Z,1.52
2022-10-08T09:58:49.836Z,1.95
2022-10-08T10:01:20.171Z,2.00
2022-10-08T10:03:54.866Z,1.98
2022-10-08T10:06:28.886Z,1.60
2022-10-08T10:09:01.748Z,1.40
2022-10-08T10:11:41.853Z,1.88
2022-10-08T10:14:21.373Z,1.58
2022-10-08T10:16:59.781Z,1.90
2022-10-08T10:19:33.854Z,1.65
2022-10-08T10:22:06.076Z,1.73
2022-10-08T10:24:45.714Z,1.92
2022-10-08T10:27:17.437Z,1.70
2022-10-08T10:29:52.746Z,2.00
2022-10-08T10:32:31.715Z,1.73
2022-10-08T10:35:06.443Z,1.92
2022-10-08T10:37:41.595Z,2.17
2022-10-08T10:40:28.372Z,1.77
2022-10-08T10:43:07.291Z,1.65
2022-10-08T10:45:36.128Z,1.70
2022-10-08T10:48:08.944Z,2.00
2022-10-08T10:50:41.561Z,1.92
2022-10-08T10:53:23.492Z,1.70
2022-10-08T10:56:02.199Z,1.63
2022-10-08T10:58:42.664Z,1.85
2022-10-08T11:01:23.487Z,1.60
2022-10-08T11:04:01.893Z,1.60
2022-10-08T11:06:49.552Z,1.40
2022-10-08T11:09:28.087Z,1.50
2022-10-08T11:12:00.721Z,1.67
2022-10-08T11:14:48.160Z,1.77
2022-10-08T11:17:40.421Z,1.65
2022-10-08T11:20:29.503Z,1.63
2022-10-08T11:23:03.537Z,1.83
2022-10-08T11:26:02.669Z,1.30
2022-10-08T11:28:48.476Z,1.60
2022-10-08T11:31:29.899Z,1.70
2022-10-08T11:34:24.090Z,1.35
2022-10-08T11:37:08.647Z,2.20
2022-10-08T11:40:36.754Z,1.33
2022-10-08T11:43:13.464Z,1.77
2022-10-08T11:45:43.245Z,1.77
2022-10-08T11:48:33.919Z,1.58
2022-10-08T11:51:31.767Z,1.80
2022-10-08T11:54:12.506Z,1.67
2022-10-08T11:56:44.782Z,1.75
2022-10-08T11:59:37.927Z,1.55
2022-10-08T12:02:26.136Z,1.30
2022-10-08T12:05:37.666Z,1.65
2022-10-08T12:08:06.373Z,1.38
2022-10-08T12:10:37.558Z,1.70
2022-10-08T12:13:26.629Z,1.80
2022-10-08T12:18:58.171Z,1.63
2022-10-08T12:22:01.356Z,1.60
2022-10-08T12:24:57.135Z,1.80
2022-10-08T12:30:04.458Z,2.13
2022-10-08T12:32:55.284Z,1.90
2022-10-08T12:35:28.961Z,2.10
2022-10-08T12:38:22.044Z,1.60
2022-10-08T12:43:47.975Z,1.80
2022-10-08T12:46:36.350Z,1.60
2022-10-08T12:49:20.311Z,1.65
2022-10-08T12:52:00.160Z,1.55
2022-10-08T12:54:31.285Z,1.35
2022-10-08T12:57:01.179Z,1.02
2022-10-08T13:05:30.736Z,1.60
2022-10-08T13:07:59.698Z,1.95
2022-10-08T13:15:25.013Z,1.70
2022-10-08T13:17:53.805Z,1.95
2022-10-08T13:20:23.894Z,1.95
2022-10-08T13:22:53.269Z,2.05
2022-10-08T13:25:36.763Z,2.30
2022-10-08T13:28:16.002Z,1.70
2022-10-08T13:30:46.404Z,1.80
2022-10-08T13:33:19.811Z,1.95
2022-10-08T13:40:02.168Z,1.90
2022-10-08T13:42:32.683Z,1.85
2022-10-08T13:45:01.755Z,1.67
2022-10-08T13:47:30.401Z,1.70
2022-10-08T13:50:02.126Z,1.60
2022-10-08T13:56:49.105Z,2.13
2022-10-08T13:59:17.600Z,2.20
2022-10-08T14:01:46.050Z,1.75
2022-10-08T14:04:14.355Z,1.48
2022-10-08T14:06:43.890Z,2.15
2022-10-08T14:09:16.648Z,1.42
2022-10-08T14:11:44.611Z,1.50
2022-10-08T14:14:15.247Z,1.33
2022-10-08T14:16:43.797Z,1.80
2022-10-08T14:19:12.427Z,1.73
2022-10-08T14:21:41.270Z,1.60
2022-10-08T14:24:09.523Z,1.85
2022-10-08T14:26:37.452Z,1.65
2022-10-08T14:29:05.517Z,1.25
2022-10-08T14:31:35.044Z,1.60
2022-10-08T14:34:03.008Z,1.52
2022-10-08T14:36:34.093Z,1.50
2022-10-08T14:39:02.169Z,1.58
2022-10-08T14:41:30.085Z,1.40
2022-10-08T14:43:58.138Z,1.45
2022-10-08T14:46:26.219Z,1.77
2022-10-08T14:48:55.556Z,1.45
2022-10-08T14:51:23.522Z,1.10
2022-10-08T14:53:53.422Z,1.60
2022-10-08T14:56:21.418Z,1.52
2022-10-08T14:58:49.379Z,1.48
2022-10-08T15:01:17.464Z,1.52
2022-10-08T15:03:45.906Z,1.42
2022-10-08T15:06:15.715Z,1.70
2022-10-08T15:08:43.692Z,1.58
2022-10-08T15:11:11.649Z,1.58
2022-10-08T15:13:39.675Z,1.92
2022-10-08T15:16:11.842Z,1.73
2022-10-08T15:18:40.119Z,2.10
2022-10-08T15:21:08.453Z,1.70
2022-10-08T15:23:37.875Z,1.55
2022-10-08T15:26:08.002Z,1.48
2022-10-08T15:28:37.510Z,1.75
2022-10-08T15:31:09.006Z,1.92
2022-10-08T15:33:40.700Z,2.10
2022-10-08T15:36:19.132Z,1.60
2022-10-08T15:38:50.055Z,1.85
2022-10-08T15:41:18.252Z,1.80
2022-10-08T15:43:46.902Z,2.13
2022-10-08T15:46:17.738Z,1.90
2022-10-08T15:48:52.668Z,1.83
2022-10-08T15:51:20.742Z,2.00
2022-10-08T15:53:50.581Z,2.08
2022-10-08T15:56:18.907Z,1.70
2022-10-08T15:58:50.941Z,1.65
2022-10-08T16:01:22.676Z,1.98
2022-10-08T16:03:52.338Z,2.13
2022-10-08T16:06:22.536Z,1.65
2022-10-08T16:08:52.213Z,1.75
2022-10-08T16:11:22.573Z,1.95
2022-10-08T16:13:52.308Z,1.63
2022-10-08T16:16:21.169Z,2.15
2022-10-08T16:18:52.907Z,2.15
2022-10-08T16:21:21.317Z,1.65
2022-10-08T16:23:50.837Z,2.55
2022-10-08T16:26:21.428Z,2.10
2022-10-08T16:28:51.119Z,2.08
2022-10-08T16:31:19.902Z,1.92
2022-10-08T16:33:48.760Z,2.22
2022-10-08T16:36:16.679Z,1.90
2022-10-08T16:38:44.661Z,1.90
2022-10-08T16:41:16.648Z,2.33
2022-10-08T16:43:46.277Z,2.03
2022-10-08T16:46:15.993Z,1.60
2022-10-08T16:48:44.157Z,1.67
2022-10-08T16:51:13.525Z,1.73
2022-10-08T16:53:41.496Z,1.70
2022-10-08T16:56:09.566Z,1.70
2022-10-08T16:58:38.841Z,1.92
2022-10-08T17:01:08.781Z,2.13
2022-10-08T17:03:37.548Z,2.05
2022-10-08T17:06:06.268Z,1.80
2022-10-08T17:08:34.215Z,2.03
2022-10-08T17:11:05.789Z,1.80
2022-10-08T17:13:33.961Z,2.10
2022-10-08T17:16:07.472Z,2.05
2022-10-08T17:18:35.612Z,2.08
2022-10-08T17:21:04.449Z,1.90
2022-10-08T17:23:37.268Z,1.95
2022-10-08T17:26:07.473Z,2.72
2022-10-08T17:28:37.311Z,1.77
2022-10-08T17:31:08.615Z,1.95
2022-10-08T17:33:37.303Z,1.85
2022-10-08T17:36:07.640Z,1.90
2022-10-08T17:38:36.320Z,2.35
2022-10-08T17:41:11.447Z,1.80
2022-10-08T17:43:39.429Z,1.80
2022-10-08T17:46:10.293Z,2.10
2022-10-08T17:48:38.718Z,1.98
2022-10-08T17:51:07.940Z,2.35
2022-10-08T17:53:35.910Z,1.75
2022-10-08T17:56:05.797Z,1.98
2022-10-08T17:58:34.268Z,2.17
2022-10-08T18:01:09.811Z,2.25
2022-10-08T18:03:39.613Z,2.03
2022-10-08T18:06:09.849Z,2.25
2022-10-08T18:08:38.549Z,1.83
2022-10-08T18:11:08.156Z,1.95
2022-10-08T18:13:36.431Z,2.15
2022-10-08T18:16:05.548Z,1.85
2022-10-08T18:18:35.217Z,2.05
2022-10-08T18:21:04.697Z,2.33
2022-10-08T18:23:34.518Z,1.73
2022-10-08T18:26:10.754Z,2.03
2022-10-08T18:28:39.058Z,2.08
2022-10-08T18:31:07.925Z,1.80
2022-10-08T18:33:39.966Z,2.05
2022-10-08T18:36:09.944Z,1.92
2022-10-08T18:38:38.064Z,1.88
2022-10-08T18:41:16.641Z,2.08
2022-10-08T18:43:45.371Z,1.88
2022-10-08T18:46:13.938Z,1.58
2022-10-08T18:48:43.693Z,1.58
2022-10-08T18:51:13.659Z,1.42
2022-10-08T18:53:43.272Z,2.10
2022-10-08T18:56:12.830Z,1.63
2022-10-08T18:58:40.921Z,1.60
2022-10-08T19:01:17.731Z,1.33
2022-10-08T19:03:48.424Z,1.55
2022-10-08T19:06:16.779Z,1.50
2022-10-08T19:08:45.108Z,1.55
2022-10-08T19:11:15.617Z,1.63
2022-10-08T19:13:44.321Z,1.95
2022-10-08T19:16:15.455Z,1.90
2022-10-08T19:18:44.441Z,2.00
2022-10-08T19:21:14.579Z,1.88
2022-10-08T19:23:42.723Z,2.22
2022-10-08T19:26:10.771Z,2.07
2022-10-08T19:28:40.946Z,2.17
2022-10-08T19:31:16.532Z,1.60
2022-10-08T19:33:48.906Z,1.77
2022-10-08T19:36:18.820Z,2.13
2022-10-08T19:38:52.266Z,1.92
2022-10-08T19:41:20.679Z,1.98
2022-10-08T19:43:48.908Z,2.10
2022-10-08T19:46:17.081Z,2.05
2022-10-08T19:48:48.641Z,2.72
2022-10-08T19:51:18.422Z,2.40
2022-10-08T19:53:46.569Z,2.05
2022-10-08T19:56:15.540Z,2.38
2022-10-08T19:58:48.506Z,2.25
2022-10-08T20:01:18.492Z,2.08
2022-10-08T20:03:46.784Z,2.58
2022-10-08T20:06:24.049Z,1.73
2022-10-08T20:08:55.492Z,1.95
2022-10-08T20:11:24.620Z,2.70
2022-10-08T20:13:54.092Z,2.72
2022-10-08T20:16:23.615Z,2.08
2022-10-08T20:18:54.223Z,2.40
2022-10-08T20:21:23.167Z,2.05
2022-10-08T20:23:51.473Z,1.98
2022-10-08T20:26:22.674Z,1.95
2022-10-08T20:28:53.611Z,2.20
2022-10-08T20:31:23.900Z,2.10
2022-10-08T20:33:56.839Z,2.30
2022-10-08T20:36:25.573Z,2.40
2022-10-08T20:38:53.817Z,2.58
2022-10-08T20:41:28.061Z,1.92
2022-10-08T20:44:02.337Z,2.00
2022-10-08T20:46:31.555Z,2.20
2022-10-08T20:48:59.747Z,2.00
2022-10-08T20:51:29.578Z,1.95
2022-10-08T20:54:00.500Z,1.70
2022-10-08T20:56:34.729Z,1.90
2022-10-08T20:59:05.197Z,1.77
2022-10-08T21:01:35.547Z,1.40
2022-10-08T21:04:03.659Z,1.90
2022-10-08T21:06:36.220Z,2.60
2022-10-08T21:09:04.528Z,1.90
2022-10-08T21:11:36.266Z,2.10
2022-10-08T21:14:04.327Z,1.83
2022-10-08T21:16:34.364Z,2.00
2022-10-08T21:19:03.802Z,2.03
2022-10-08T21:21:35.504Z,1.83
2022-10-08T21:24:03.866Z,1.98
2022-10-08T21:26:34.792Z,2.10
2022-10-08T21:29:05.835Z,2.33
2022-10-08T21:31:36.432Z,2.30
2022-10-08T21:34:05.942Z,2.33
2022-10-08T21:36:36.600Z,2.30
2022-10-08T21:39:06.688Z,1.90
2022-10-08T21:41:37.467Z,1.90
2022-10-08T21:44:07.751Z,2.10
2022-10-08T21:46:38.074Z,1.90
2022-10-08T21:49:08.008Z,2.40
2022-10-08T21:51:36.317Z,2.38
2022-10-08T21:54:06.418Z,2.08
2022-10-08T21:56:37.882Z,2.13
2022-10-08T21:59:07.719Z,2.78
2022-10-08T22:01:37.779Z,2.40
2022-10-08T22:04:08.521Z,2.10
2022-10-08T22:06:39.253Z,2.13
2022-10-08T22:09:08.985Z,2.00
2022-10-08T22:11:38.487Z,2.27
2022-10-08T22:14:07.019Z,1.70
2022-10-08T22:16:34.983Z,1.60
2022-10-08T22:19:03.191Z,2.53
2022-10-08T22:21:31.492Z,1.92
2022-10-08T22:23:59.488Z,2.42
2022-10-08T22:26:29.982Z,1.90
2022-10-08T22:28:59.880Z,1.87
2022-10-08T22:31:28.803Z,2.30
2022-10-08T22:33:56.802Z,1.90
2022-10-08T22:36:27.213Z,1.67
2022-10-08T22:38:55.269Z,2.03
2022-10-08T22:41:25.373Z,1.83
2022-10-08T22:43:54.037Z,2.10
2022-10-08T22:46:25.811Z,1.97
2022-10-08T22:48:58.224Z,2.03
2022-10-08T22:51:26.174Z,2.58
2022-10-08T22:53:54.375Z,2.50
2022-10-08T22:56:24.067Z,2.20
2022-10-08T22:58:52.986Z,2.33
2022-10-08T23:01:24.381Z,2.27
2022-10-08T23:04:10.942Z,2.07
2022-10-08T23:06:39.121Z,2.30
2022-10-08T23:09:08.700Z,2.00
2022-10-08T23:11:36.911Z,1.87
2022-10-08T23:14:05.979Z,2.30
2022-10-08T23:16:35.917Z,1.90
2022-10-08T23:19:06.514Z,2.50
2022-10-08T23:21:34.920Z,2.30
2022-10-08T23:24:03.383Z,2.50
2022-10-08T23:26:32.437Z,2.33
2022-10-08T23:29:01.574Z,2.30
2022-10-08T23:31:31.611Z,1.80
2022-10-08T23:36:53.821Z,2.20
2022-10-08T23:39:21.769Z,2.30
2022-10-08T23:41:49.694Z,2.30
2022-10-08T23:44:17.700Z,2.17
2022-10-08T23:46:45.669Z,2.23
2022-10-08T23:49:14.949Z,2.17
2022-10-08T23:51:43.268Z,2.57
2022-10-08T23:54:11.214Z,2.20
2022-10-08T23:56:39.187Z,2.10
2022-10-08T23:59:07.249Z,2.00
